Time;durP1;ratioP1;P1;durP2;ratioP2;P2;SDS_P1;SDS_P2;PMS_P1;PMS_P2;Temp;Humidity;BMP_temperature;BMP_pressure;BME280_temperature;BME280_humidity;BME280_pressure;Samples;Min_cycle;Max_cycle;Signal;HPM_P1;HPM_P2
2023/01/26 04:09:08;;;;;;;31.60;17.90;;;;;;;4.12;100.00;101738.92;108095;1284;21981;-70
2023/01/26 04:11:34;;;;;;;37.10;20.50;;;;;;;4.53;100.00;101730.80;108092;1284;21987;-61
2023/01/26 04:22:15;;;;;;;24.20;14.10;;;;;;;5.09;96.26;101737.70;108315;1277;21986;-62
2023/01/26 04:24:42;;;;;;;21.90;13.30;;;;;;;5.22;94.66;101739.31;108302;1281;22448;-62
2023/01/26 04:27:08;;;;;;;19.50;12.50;;;;;;;5.27;93.38;101745.75;108354;1281;22015;-61
2023/01/26 04:29:34;;;;;;;21.10;11.90;;;;;;;5.31;91.97;101747.96;108299;1281;22164;-70
2023/01/26 04:32:03;;;;;;;20.70;11.60;;;;;;;5.33;90.95;101747.14;108291;1281;22028;-69
2023/01/26 04:34:28;;;;;;;19.90;10.40;;;;;;;5.33;90.26;101746.96;108349;1281;21987;-69
2023/01/26 04:36:55;;;;;;;22.70;10.00;;;;;;;5.36;89.75;101744.09;108400;1281;21989;-69
2023/01/26 04:39:21;;;;;;;19.10;11.00;;;;;;;5.45;89.64;101751.85;108374;1281;22247;-61
2023/01/26 04:41:47;;;;;;;20.60;10.80;;;;;;;5.49;89.33;101750.25;107561;1281;1002422;-61
2023/01/26 04:44:13;;;;;;;23.10;11.60;;;;;;;5.53;89.27;101743.55;107515;1281;1002347;-61
2023/01/26 04:46:39;;;;;;;27.60;10.80;;;;;;;5.60;88.68;101739.60;108417;1281;22019;-61
2023/01/26 04:49:05;;;;;;;24.70;11.00;;;;;;;5.69;88.25;101737.09;108392;1281;22010;-61
2023/01/26 04:51:31;;;;;;;27.80;11.20;;;;;;;5.75;87.62;101738.14;108304;1281;21999;-62
2023/01/26 04:53:57;;;;;;;27.70;11.50;;;;;;;5.79;87.17;101741.55;108280;1281;21981;-70
2023/01/26 04:56:26;;;;;;;28.70;12.00;;;;;;;5.82;86.41;101739.02;108249;1281;21992;-61
2023/01/26 04:58:52;;;;;;;26.20;10.60;;;;;;;5.89;86.02;101740.63;107563;1281;1002832;-69
2023/01/26 05:01:18;;;;;;;27.90;12.40;;;;;;;5.87;85.37;101739.83;108283;1281;22042;-70
2023/01/26 05:03:44;;;;;;;19.60;11.40;;;;;;;5.79;84.49;101735.63;108339;1281;21982;-70
2023/01/26 05:06:10;;;;;;;25.60;11.60;;;;;;;5.78;84.04;101738.20;108296;1281;22519;-70
2023/01/26 05:08:37;;;;;;;21.80;11.10;;;;;;;5.76;83.90;101739.17;108344;1281;21983;-70
2023/01/26 05:11:04;;;;;;;28.70;12.60;;;;;;;5.78;82.75;101740.46;108275;1281;21984;-70
2023/01/26 05:13:30;;;;;;;20.90;11.50;;;;;;;5.76;82.20;101740.40;108659;1270;22037;-61
2023/01/26 05:15:56;;;;;;;22.60;9.30;;;;;;;5.73;81.98;101735.28;108474;1270;21990;-62
2023/01/26 05:18:21;;;;;;;26.10;11.10;;;;;;;5.72;82.38;101736.48;107529;1281;1003214;-62
2023/01/26 05:20:47;;;;;;;24.90;12.00;;;;;;;5.61;83.26;101741.72;107512;1282;1002912;-70
2023/01/26 05:23:13;;;;;;;25.50;11.60;;;;;;;5.56;84.64;101737.71;108185;1282;21984;-62
2023/01/26 05:25:41;;;;;;;27.80;11.50;;;;;;;5.58;85.47;101741.27;108272;1271;21982;-61
2023/01/26 05:28:08;;;;;;;34.70;14.40;;;;;;;5.59;85.28;101745.13;108189;1282;22021;-61
2023/01/26 05:30:34;;;;;;;40.30;13.50;;;;;;;5.68;85.41;101745.42;108246;1282;22025;-69
2023/01/26 05:33:01;;;;;;;28.10;11.40;;;;;;;5.87;85.09;101746.64;108265;1282;21998;-69
2023/01/26 05:35:27;;;;;;;41.00;14.20;;;;;;;5.95;84.38;101748.96;108267;1282;21981;-64
2023/01/26 05:37:54;;;;;;;40.10;11.90;;;;;;;6.00;83.93;101744.94;108325;1283;21997;-62
2023/01/26 05:40:20;;;;;;;32.60;11.20;;;;;;;6.15;83.21;101741.91;108302;1283;21987;-62
2023/01/26 16:38:03;;;;;;;53.00;28.30;;;;;;;5.24;100.00;101438.10;108408;1279;21985;-61
2023/01/26 16:40:28;;;;;;;50.70;28.50;;;;;;;5.82;100.00;101432.96;108447;1279;22442;-61
2023/01/26 16:42:54;;;;;;;48.30;27.60;;;;;;;6.13;99.63;101433.19;108495;1280;22025;-61
2023/01/26 16:45:22;;;;;;;50.70;28.60;;;;;;;6.31;97.46;101430.80;108457;1280;21985;-62
2023/01/26 16:47:49;;;;;;;47.40;26.10;;;;;;;6.43;95.47;101427.58;108380;1276;380584;-61
2023/01/26 16:50:17;;;;;;;36.40;21.50;;;;;;;6.51;93.36;101428.28;108727;1276;21982;-59
2023/01/26 16:52:43;;;;;;;38.40;22.80;;;;;;;6.58;92.03;101424.59;108798;1276;21988;-62
2023/01/26 16:55:12;;;;;;;35.80;21.30;;;;;;;6.62;91.41;101425.02;108718;1276;21980;-59
2023/01/26 16:57:42;;;;;;;30.70;17.80;;;;;;;6.71;90.31;101423.27;108809;1276;22160;-60
2023/01/26 17:00:18;;;;;;;31.00;17.60;;;;;;;6.77;89.57;101419.73;108766;1276;22148;-59
2023/01/26 17:02:50;;;;;;;32.90;17.20;;;;;;;6.84;89.13;101417.61;108819;1276;23754;-62
2023/01/26 17:05:20;;;;;;;28.50;16.30;;;;;;;6.91;88.99;101420.00;108777;1276;24191;-59
2023/01/26 17:07:46;;;;;;;31.20;16.90;;;;;;;6.88;88.66;101419.61;108815;1276;21976;-61
2023/01/26 17:10:13;;;;;;;31.20;19.00;;;;;;;6.88;88.41;101417.86;108636;1276;21980;-62
2023/01/26 17:12:39;;;;;;;29.40;18.50;;;;;;;6.89;87.85;101422.59;108670;1271;22017;-59
2023/01/26 17:15:06;;;;;;;29.40;16.60;;;;;;;6.91;87.33;101422.27;108789;1276;22016;-59
2023/01/26 17:17:34;;;;;;;32.40;17.70;;;;;;;6.93;87.33;101419.70;108627;1276;21982;-59
2023/01/26 17:20:01;;;;;;;34.60;19.10;;;;;;;6.97;87.66;101414.02;108684;1276;22092;-62
2023/01/26 17:22:28;;;;;;;34.60;18.40;;;;;;;7.03;87.96;101410.83;108627;1276;21988;-59
2023/01/26 17:24:55;;;;;;;38.70;20.40;;;;;;;7.13;88.16;101407.16;108783;1276;23583;-63
2023/01/26 17:27:21;;;;;;;33.50;17.80;;;;;;;7.23;87.88;101401.40;108982;1276;21999;-62
2023/01/26 17:29:48;;;;;;;29.20;17.00;;;;;;;7.25;86.84;101400.41;108694;1276;23717;-60
2023/01/26 17:32:22;;;;;;;29.40;16.70;;;;;;;7.26;86.05;101399.55;108717;1276;21972;-62
2023/01/26 17:34:49;;;;;;;26.60;16.30;;;;;;;7.24;85.08;101393.73;108741;1276;21981;-60
2023/01/26 17:37:15;;;;;;;28.30;16.40;;;;;;;7.19;84.74;101387.20;108784;1276;21985;-59
2023/01/26 17:39:41;;;;;;;32.60;17.20;;;;;;;7.14;83.99;101387.27;108699;1276;21976;-60
2023/01/26 17:42:07;;;;;;;25.80;15.70;;;;;;;7.08;83.60;101388.22;108597;1276;21987;-59
2023/01/26 17:44:33;;;;;;;26.10;16.00;;;;;;;7.05;83.77;101387.65;108602;1267;21981;-63
2023/01/26 17:46:59;;;;;;;25.60;15.10;;;;;;;7.06;84.14;101385.91;108634;1271;21978;-62
2023/01/26 17:49:25;;;;;;;28.40;16.80;;;;;;;7.08;83.98;101384.02;108662;1276;22041;-59
2023/01/26 17:51:51;;;;;;;28.10;17.50;;;;;;;7.08;84.08;101385.95;108768;1276;23612;-59
2023/01/26 17:54:18;;;;;;;28.90;18.60;;;;;;;7.16;85.65;101384.52;108690;1276;21987;-62
2023/01/26 17:56:45;;;;;;;30.50;18.00;;;;;;;7.26;85.64;101384.35;108645;1276;21981;-62
2023/01/26 17:59:11;;;;;;;36.80;17.70;;;;;;;7.27;84.39;101386.65;108667;1276;21987;-61
2023/01/26 18:01:37;;;;;;;31.50;16.70;;;;;;;7.26;83.71;101388.36;108749;1276;21939;-61
2023/01/26 18:04:03;;;;;;;26.80;15.60;;;;;;;7.24;83.73;101390.25;108620;1273;21985;-61
2023/01/26 18:06:29;;;;;;;28.30;16.90;;;;;;;7.24;83.51;101389.73;108644;1276;21967;-62
2023/01/26 18:08:55;;;;;;;28.00;16.50;;;;;;;7.23;83.13;101389.02;108623;1274;21976;-62
2023/01/26 18:11:21;;;;;;;29.20;16.50;;;;;;;7.21;82.65;101386.70;108607;1276;21978;-62
2023/01/26 18:13:50;;;;;;;29.80;17.60;;;;;;;7.20;82.71;101386.34;108686;1273;21980;-61
2023/01/26 18:16:18;;;;;;;30.20;16.80;;;;;;;7.22;82.10;101382.71;108014;1276;1002797;-62
2023/01/26 18:18:44;;;;;;;30.50;17.00;;;;;;;7.19;81.91;101377.23;107919;1270;1002485;-59
2023/01/26 18:21:17;;;;;;;31.50;18.00;;;;;;;7.19;82.10;101371.30;108735;1276;21990;-59
2023/01/26 18:23:54;;;;;;;31.80;19.10;;;;;;;7.20;81.56;101367.83;108780;1274;21979;-62
2023/01/26 18:26:22;;;;;;;30.40;17.50;;;;;;;7.20;82.25;101362.60;108751;1276;22962;-60
2023/01/26 18:28:48;;;;;;;31.80;18.40;;;;;;;7.30;83.58;101357.35;108617;1276;21976;-59
2023/01/26 21:40:48;;;;;;;39.70;20.70;;;;;;;4.86;99.97;101208.02;108477;1276;22012;-68
2023/01/26 21:43:14;;;;;;;42.60;21.80;;;;;;;5.28;98.37;101196.31;108492;1278;21988;-62
2023/01/26 21:46:00;;;;;;;37.80;20.10;;;;;;;5.50;95.99;101184.09;108416;1278;21992;-69
2023/01/26 21:48:34;;;;;;;39.30;20.50;;;;;;;5.63;94.43;101179.68;108312;1275;320010;-63
2023/01/26 21:53:46;;;;;;;29.60;17.40;;;;;;;5.87;92.50;101157.69;108858;1275;21956;-69
2023/01/26 21:56:16;;;;;;;29.80;15.70;;;;;;;5.96;91.29;101155.59;108817;1275;23784;-68
2023/01/26 21:58:56;;;;;;;29.60;16.00;;;;;;;6.02;90.76;101153.80;108906;1274;21971;-68
2023/01/26 22:01:23;;;;;;;28.40;15.20;;;;;;;6.16;89.55;101156.70;109029;1274;21993;-62
2023/01/26 22:03:49;;;;;;;25.00;15.10;;;;;;;6.27;88.77;101154.27;108912;1274;21973;-69
2023/01/26 22:06:15;;;;;;;24.10;14.50;;;;;;;6.34;88.17;101148.48;109032;1274;21976;-61
2023/01/26 22:08:42;;;;;;;24.60;14.30;;;;;;;6.36;87.22;101142.77;108968;1274;23425;-68
2023/01/26 22:11:08;;;;;;;27.00;15.80;;;;;;;6.36;86.45;101139.45;108951;1274;21979;-61
2023/01/26 22:13:35;;;;;;;26.80;15.30;;;;;;;6.30;86.23;101134.80;108979;1271;21976;-61
2023/01/26 22:16:01;;;;;;;25.90;15.10;;;;;;;6.32;86.02;101129.45;108924;1274;21984;-61
2023/01/26 22:18:29;;;;;;;26.30;15.60;;;;;;;6.34;85.36;101126.68;108953;1274;22021;-68
2023/01/26 22:20:55;;;;;;;30.10;17.40;;;;;;;6.33;84.62;101121.79;108943;1274;22048;-68
2023/01/26 22:23:21;;;;;;;30.40;16.20;;;;;;;6.33;84.17;101114.83;108876;1271;22519;-69
2023/01/26 22:25:47;;;;;;;25.20;14.90;;;;;;;6.33;83.55;101108.54;108934;1274;23788;-62
2023/01/26 22:28:13;;;;;;;25.60;15.20;;;;;;;6.32;83.55;101109.04;109043;1270;21983;-61
2023/01/26 22:30:40;;;;;;;26.90;15.50;;;;;;;6.32;83.44;101103.98;108950;1274;21983;-68
2023/01/26 22:33:06;;;;;;;28.40;15.20;;;;;;;6.31;83.67;101102.41;108917;1274;22021;-68
2023/01/26 22:35:32;;;;;;;26.60;15.40;;;;;;;6.28;84.07;101105.66;109057;1271;22017;-69
2023/01/26 22:37:58;;;;;;;35.50;18.80;;;;;;;6.30;84.21;101099.42;109036;1274;23034;-69
2023/01/26 22:40:24;;;;;;;34.10;16.60;;;;;;;6.31;83.57;101092.29;108895;1274;22036;-62
2023/01/26 22:42:51;;;;;;;33.60;17.90;;;;;;;6.29;83.13;101096.97;108916;1274;22062;-68
2023/01/26 22:45:18;;;;;;;32.60;16.40;;;;;;;6.29;83.23;101098.53;108892;1273;23043;-69
2023/01/26 22:47:47;;;;;;;27.30;15.20;;;;;;;6.32;83.47;101091.63;108919;1275;21982;-62
2023/01/26 22:50:14;;;;;;;30.00;15.90;;;;;;;6.34;83.36;101087.83;108839;1275;23081;-61
2023/01/26 22:52:39;;;;;;;23.90;14.60;;;;;;;6.43;83.15;101083.08;108854;1275;22065;-62
2023/01/26 22:55:06;;;;;;;28.90;15.90;;;;;;;6.50;82.74;101084.23;108837;1275;21992;-62
2023/01/26 22:57:33;;;;;;;28.50;15.70;;;;;;;6.52;82.52;101084.97;108879;1274;22743;-69
2023/01/26 22:59:59;;;;;;;29.10;16.50;;;;;;;6.54;82.21;101084.48;108868;1275;21979;-68
2023/01/26 23:02:26;;;;;;;27.50;16.00;;;;;;;6.56;82.22;101082.58;108942;1270;21969;-62
2023/01/26 23:04:52;;;;;;;28.10;16.10;;;;;;;6.62;82.06;101084.77;109082;1264;22019;-62
2023/01/26 23:07:18;;;;;;;32.10;17.90;;;;;;;6.62;81.87;101077.79;109031;1275;22195;-68
2023/01/26 23:09:45;;;;;;;26.80;15.80;;;;;;;6.59;81.29;101074.09;109079;1273;21979;-69
2023/01/26 23:12:10;;;;;;;29.90;15.60;;;;;;;6.60;81.29;101078.83;109140;1275;21982;-68
2023/01/26 23:14:36;;;;;;;30.80;15.90;;;;;;;6.63;81.27;101086.17;108936;1275;21972;-69
2023/01/26 23:17:04;;;;;;;26.20;14.20;;;;;;;6.65;81.69;101090.04;108922;1275;22452;-62
2023/01/26 23:19:32;;;;;;;29.30;16.20;;;;;;;6.70;81.90;101099.02;109060;1275;22106;-62
2023/01/26 23:21:58;;;;;;;29.10;16.30;;;;;;;6.74;81.73;101099.61;108976;1261;21989;-68
2023/01/26 23:24:24;;;;;;;31.10;16.20;;;;;;;6.76;81.65;101102.60;108948;1275;21986;-66
2023/01/26 23:26:50;;;;;;;26.40;16.30;;;;;;;6.78;81.50;101098.98;108945;1275;21982;-62
2023/01/26 23:29:15;;;;;;;29.40;16.00;;;;;;;6.81;81.37;101095.00;108162;1275;1004236;-62
2023/01/26 23:31:41;;;;;;;31.50;16.60;;;;;;;6.82;80.91;101094.48;108912;1275;22080;-62
2023/01/26 23:34:07;;;;;;;28.90;17.40;;;;;;;6.80;80.31;101096.39;109001;1275;21976;-68
2023/01/26 23:36:33;;;;;;;26.60;15.00;;;;;;;6.77;80.31;101097.38;109030;1274;22017;-62
2023/01/26 23:38:59;;;;;;;26.30;14.60;;;;;;;6.77;80.63;101098.95;108802;1275;22013;-68
2023/01/26 23:41:25;;;;;;;29.80;15.90;;;;;;;6.80;80.83;101102.30;108935;1275;22027;-68
2023/01/26 23:43:51;;;;;;;30.20;15.90;;;;;;;6.83;80.82;101101.31;109090;1262;21972;-63
2023/01/26 23:46:17;;;;;;;32.20;17.00;;;;;;;6.84;80.81;101097.30;108970;1268;21971;-68
2023/01/26 23:48:42;;;;;;;28.50;16.00;;;;;;;6.85;80.61;101095.22;109135;1273;21972;-68
2023/01/26 23:51:11;;;;;;;31.70;16.20;;;;;;;6.86;80.53;101089.99;109140;1273;22008;-62
2023/01/26 23:53:37;;;;;;;28.80;17.30;;;;;;;6.90;80.32;101086.39;109016;1273;21976;-68
2023/01/26 23:56:14;;;;;;;27.40;15.40;;;;;;;6.90;79.77;101077.84;109036;1273;24358;-61
2023/01/26 23:58:40;;;;;;;30.50;16.60;;;;;;;6.95;79.22;101077.22;109159;1273;24363;-67
